Time;durP1;ratioP1;P1;durP2;ratioP2;P2;SDS_P1;SDS_P2;PMS_P1;PMS_P2;Temp;Humidity;BMP_temperature;BMP_pressure;BME280_temperature;BME280_humidity;BME280_pressure;Samples;Min_cycle;Max_cycle;Signal;HPM_P1;HPM_P2
2023/12/01 00:01:07;;;;;;;0.73;0.73;;;;;;;-2.81;82.82;99774.63;5065485;28;20033;-71
2023/12/01 00:03:32;;;;;;;2.28;1.42;;;;;;;-2.86;82.57;99746.53;5065731;28;20415;-71
2023/12/01 00:05:58;;;;;;;0.73;0.73;;;;;;;-2.87;82.48;99771.03;5065272;28;20024;-69
2023/12/01 00:08:23;;;;;;;0.70;0.70;;;;;;;-2.86;82.51;99771.94;5065373;28;20037;-69
2023/12/01 00:10:48;;;;;;;1.60;1.23;;;;;;;-2.89;82.46;99767.56;5065396;28;20059;-70
2023/12/01 00:13:14;;;;;;;0.80;0.77;;;;;;;-2.88;82.49;99769.31;5065655;28;20096;-70
2023/12/01 00:15:39;;;;;;;0.85;0.82;;;;;;;-2.91;82.38;99773.44;5065677;28;20108;-69
2023/12/01 00:18:04;;;;;;;0.50;0.50;;;;;;;-2.92;82.46;99780.16;5047534;28;20029;-70
2023/12/01 00:20:31;;;;;;;0.55;0.55;;;;;;;-2.94;82.52;99768.25;5065122;28;20021;-69
2023/12/01 00:22:56;;;;;;;0.55;0.55;;;;;;;-2.99;82.51;99761.28;5065340;28;20021;-70
2023/12/01 00:25:22;;;;;;;1.30;1.30;;;;;;;-3.00;82.66;99769.72;5065132;28;20483;-68
2023/12/01 00:27:47;;;;;;;0.80;0.80;;;;;;;-2.95;82.54;99756.31;5064915;28;20052;-69
2023/12/01 00:30:12;;;;;;;2.90;1.77;;;;;;;-3.03;82.46;99763.66;5047146;28;20492;-69
2023/12/01 00:32:38;;;;;;;0.52;0.52;;;;;;;-3.00;82.58;99790.06;5065023;28;20043;-68
2023/12/01 00:35:03;;;;;;;0.70;0.70;;;;;;;-3.01;82.40;99772.22;5065306;28;20104;-70
2023/12/01 00:37:31;;;;;;;0.55;0.55;;;;;;;-3.01;82.22;99778.19;5065219;28;20024;-70
2023/12/01 00:39:56;;;;;;;0.60;0.60;;;;;;;-3.04;82.38;99767.03;5064983;28;20027;-69
2023/12/01 00:42:21;;;;;;;0.55;0.55;;;;;;;-3.01;82.39;99783.25;5064938;28;20025;-69
2023/12/01 00:44:47;;;;;;;1.60;1.50;;;;;;;-3.07;82.52;99777.06;5064952;28;20103;-69
2023/12/01 00:47:12;;;;;;;0.60;0.60;;;;;;;-3.18;82.45;99753.84;5064775;28;20496;-69
2023/12/01 00:49:38;;;;;;;1.15;1.15;;;;;;;-3.05;82.55;99771.22;5064705;28;20037;-69
2023/12/01 00:52:04;;;;;;;1.13;1.13;;;;;;;-3.08;82.39;99776.19;5046957;28;20028;-69
2023/12/01 00:54:30;;;;;;;0.60;0.60;;;;;;;-3.02;82.65;99773.03;5064957;28;20032;-69
2023/12/01 00:56:55;;;;;;;1.30;1.20;;;;;;;-3.02;82.41;99770.50;5064810;28;20080;-69
2023/12/01 00:59:20;;;;;;;0.98;0.88;;;;;;;-3.00;82.44;99762.13;5064679;28;20020;-68
2023/12/01 01:01:47;;;;;;;0.60;0.60;;;;;;;-2.96;82.24;99769.84;5064793;28;20024;-69
2023/12/01 01:04:12;;;;;;;0.70;0.70;;;;;;;-3.03;82.23;99774.69;5064826;28;20415;-68
2023/12/01 01:06:38;;;;;;;2.83;2.67;;;;;;;-2.96;81.92;99780.00;5064445;28;20067;-69
2023/12/01 01:09:03;;;;;;;0.50;0.50;;;;;;;-3.02;82.03;99775.56;5064805;28;20024;-69
2023/12/01 01:11:28;;;;;;;0.70;0.70;;;;;;;-3.03;82.13;99774.69;5064487;28;20025;-69
2023/12/01 01:13:54;;;;;;;0.50;0.50;;;;;;;-3.06;82.08;99779.66;5064760;28;20405;-68
2023/12/01 01:16:19;;;;;;;0.80;0.80;;;;;;;-3.07;81.99;99762.72;5064625;28;20025;-69
2023/12/01 01:18:44;;;;;;;1.50;1.15;;;;;;;-3.01;81.87;99778.19;5046745;28;20032;-69
2023/12/01 01:21:10;;;;;;;0.60;0.60;;;;;;;-3.12;81.64;99770.16;5046803;28;20029;-69
2023/12/01 01:23:35;;;;;;;0.63;0.63;;;;;;;-3.05;81.93;99770.38;5064622;28;20040;-69
2023/12/01 01:26:02;;;;;;;0.95;0.95;;;;;;;-3.06;81.89;99772.06;5064617;28;20017;-69
2023/12/01 01:28:28;;;;;;;3.13;1.08;;;;;;;-3.03;81.57;99773.81;5064572;28;20021;-69
2023/12/01 01:30:53;;;;;;;0.70;0.70;;;;;;;-3.06;81.79;99772.06;5064813;28;20025;-69
2023/12/01 01:33:19;;;;;;;0.65;0.65;;;;;;;-3.15;81.55;99757.34;5068524;28;20108;-69
2023/12/01 01:35:45;;;;;;;0.95;0.95;;;;;;;-3.06;81.60;99779.66;5068507;28;20555;-69
2023/12/01 01:38:10;;;;;;;1.02;0.93;;;;;;;-3.03;81.16;99759.47;5068514;28;20025;-69
2023/12/01 01:40:36;;;;;;;1.58;1.45;;;;;;;-3.06;81.40;99761.03;5068290;28;20099;-69
2023/12/01 01:43:01;;;;;;;3.60;1.73;;;;;;;-3.04;81.51;99767.91;5068568;28;20032;-69
2023/12/01 01:45:27;;;;;;;1.05;1.05;;;;;;;-3.06;81.20;99759.34;5068461;28;20089;-69
2023/12/01 01:47:52;;;;;;;0.60;0.60;;;;;;;-3.03;81.05;99758.59;5068207;28;20037;-69
2023/12/01 01:50:21;;;;;;;3.85;1.42;;;;;;;-3.18;80.97;99749.59;5050541;28;20032;-69
2023/12/01 01:52:48;;;;;;;0.50;0.50;;;;;;;-3.07;80.88;99764.38;5068412;28;20163;-69
2023/12/01 01:55:13;;;;;;;0.75;0.75;;;;;;;-3.03;80.94;99773.81;5068216;28;20024;-69
2023/12/01 01:57:43;;;;;;;0.60;0.60;;;;;;;-3.02;80.97;99768.81;5068047;28;20510;-69
2023/12/01 02:00:10;;;;;;;0.60;0.60;;;;;;;-3.02;80.89;99773.88;5067983;28;20037;-68
2023/12/01 02:02:36;;;;;;;1.65;1.55;;;;;;;-3.08;80.51;99776.19;5067847;28;20036;-69
2023/12/01 02:05:01;;;;;;;0.50;0.50;;;;;;;-3.09;80.61;99766.88;5067907;28;20025;-69
2023/12/01 02:07:27;;;;;;;0.60;0.60;;;;;;;-3.06;80.38;99763.56;5067875;28;20056;-69
2023/12/01 02:09:56;;;;;;;1.02;0.95;;;;;;;-3.14;80.28;99761.63;5067938;28;20096;-69
2023/12/01 02:12:21;;;;;;;0.65;0.65;;;;;;;-3.10;80.26;99775.31;5050174;28;20020;-71
2023/12/01 02:14:46;;;;;;;7.97;1.25;;;;;;;-3.16;80.33;99769.97;5067678;28;20039;-68
2023/12/01 02:17:12;;;;;;;1.92;1.27;;;;;;;-3.18;80.30;99764.00;5067707;28;20028;-71
2023/12/01 02:19:38;;;;;;;1.00;1.00;;;;;;;-3.17;80.27;99764.03;5067593;28;20044;-69
2023/12/01 02:22:04;;;;;;;0.85;0.80;;;;;;;-3.15;80.43;99770.06;5067816;28;20027;-68
2023/12/01 02:24:30;;;;;;;0.68;0.68;;;;;;;-3.09;80.22;99773.59;5067875;28;20021;-68
2023/12/01 02:26:56;;;;;;;3.88;1.42;;;;;;;-3.12;80.31;99771.81;5067666;28;20029;-70
2023/12/01 02:29:21;;;;;;;0.60;0.60;;;;;;;-3.14;80.08;99770.91;5067613;28;20036;-68
2023/12/01 02:31:46;;;;;;;0.80;0.80;;;;;;;-3.15;80.08;99770.06;5067238;28;20024;-69
2023/12/01 02:34:12;;;;;;;2.15;1.30;;;;;;;-3.15;80.04;99772.59;5049514;28;20021;-70
2023/12/01 02:36:38;;;;;;;0.65;0.65;;;;;;;-3.14;79.99;99769.25;5067476;28;20027;-68
2023/12/01 02:39:03;;;;;;;0.70;0.70;;;;;;;-3.24;80.13;99770.56;5049262;28;20380;-69
2023/12/01 02:41:29;;;;;;;0.60;0.60;;;;;;;-3.15;79.98;99774.25;5067210;28;20029;-69
2023/12/01 02:43:54;;;;;;;0.63;0.63;;;;;;;-3.20;79.86;99768.13;5067092;28;20081;-69
2023/12/01 02:46:22;;;;;;;0.50;0.50;;;;;;;-3.20;79.92;99776.63;5066982;28;20036;-69
2023/12/01 02:48:49;;;;;;;0.50;0.50;;;;;;;-3.18;79.72;99772.44;5067304;28;20028;-70
2023/12/01 02:51:14;;;;;;;0.60;0.60;;;;;;;-3.19;79.47;99778.34;5067198;28;20419;-69
2023/12/01 02:53:41;;;;;;;0.60;0.60;;;;;;;-3.23;79.68;99779.06;5067261;28;20028;-69
2023/12/01 02:56:06;;;;;;;1.20;1.20;;;;;;;-3.29;79.37;99769.50;5066873;28;20025;-69
2023/12/01 02:58:32;;;;;;;7.63;2.35;;;;;;;-3.26;79.48;99777.25;5066770;28;20032;-69
2023/12/01 03:00:57;;;;;;;1.35;1.35;;;;;;;-3.28;79.54;99768.72;5066580;28;20021;-69
2023/12/01 03:03:22;;;;;;;1.13;1.13;;;;;;;-3.30;79.55;99764.38;5048840;28;20036;-69
2023/12/01 03:05:48;;;;;;;0.93;0.90;;;;;;;-3.34;79.56;99754.94;5066868;28;20036;-69
2023/12/01 03:08:13;;;;;;;0.50;0.50;;;;;;;-3.32;79.47;99771.94;5048728;28;20045;-68
2023/12/01 03:10:39;;;;;;;1.08;1.08;;;;;;;-3.34;79.27;99773.56;5066465;28;20025;-68
2023/12/01 03:13:04;;;;;;;0.60;0.60;;;;;;;-3.35;79.35;99774.38;5066643;28;20248;-68
2023/12/01 03:15:30;;;;;;;0.60;0.60;;;;;;;-3.39;79.20;99762.38;5066739;28;20055;-70
2023/12/01 03:17:55;;;;;;;0.63;0.63;;;;;;;-3.37;79.25;99769.22;5066572;28;20112;-69
2023/12/01 03:20:21;;;;;;;0.65;0.65;;;;;;;-3.39;79.40;99772.53;5048639;28;20093;-68
2023/12/01 03:22:50;;;;;;;0.80;0.80;;;;;;;-3.40;79.33;99768.25;5048588;28;20385;-68
2023/12/01 03:25:15;;;;;;;0.60;0.60;;;;;;;-3.37;79.39;99753.16;5066381;28;20025;-69
2023/12/01 03:27:43;;;;;;;0.60;0.60;;;;;;;-3.40;79.11;99768.25;5066423;28;20118;-69
2023/12/01 03:30:15;;;;;;;1.33;0.93;;;;;;;-3.45;79.02;99769.75;5066182;28;20028;-69
2023/12/01 03:32:54;;;;;;;0.50;0.50;;;;;;;-3.56;79.31;99761.75;5048075;28;20092;-69
2023/12/01 03:35:21;;;;;;;0.60;0.60;;;;;;;-3.52;79.43;99774.59;5066178;28;20028;-68
2023/12/01 03:37:47;;;;;;;0.82;0.82;;;;;;;-3.51;79.33;99770.38;5066125;28;20031;-69
2023/12/01 03:40:14;;;;;;;0.50;0.50;;;;;;;-3.51;79.33;99780.53;5048163;28;20041;-69
2023/12/01 03:42:42;;;;;;;1.25;1.00;;;;;;;-3.51;79.07;99783.94;5066208;28;20021;-68
2023/12/01 03:45:10;;;;;;;0.70;0.70;;;;;;;-3.51;79.05;99777.97;5066247;28;20096;-69
2023/12/01 03:47:36;;;;;;;0.60;0.60;;;;;;;-3.47;79.13;99781.50;5065461;28;20028;-68
2023/12/01 03:50:03;;;;;;;1.35;1.25;;;;;;;-3.50;78.97;99772.13;5047999;28;20039;-69
2023/12/01 03:52:29;;;;;;;0.77;0.77;;;;;;;-3.53;78.83;99774.53;5065944;28;20029;-69
2023/12/01 03:54:54;;;;;;;0.60;0.60;;;;;;;-3.57;78.80;99765.94;5065379;28;20021;-69
2023/12/01 03:57:20;;;;;;;0.82;0.82;;;;;;;-3.59;78.73;99770.06;5065753;28;20021;-69
2023/12/01 03:59:45;;;;;;;0.63;0.63;;;;;;;-3.63;78.92;99760.63;5047443;28;20032;-70
2023/12/01 04:02:10;;;;;;;0.73;0.73;;;;;;;-3.58;78.87;99768.41;5065566;28;20021;-69
2023/12/01 04:04:37;;;;;;;0.60;0.60;;;;;;;-3.64;78.88;99780.06;5065730;28;20025;-69
2023/12/01 04:07:07;;;;;;;0.65;0.65;;;;;;;-3.66;78.79;99779.13;5065303;28;20120;-68
2023/12/01 04:09:33;;;;;;;0.90;0.88;;;;;;;-3.67;78.63;99768.91;5065733;28;20017;-69
2023/12/01 04:11:58;;;;;;;1.02;0.93;;;;;;;-3.74;78.69;99771.22;5065583;28;20048;-69
2023/12/01 04:14:24;;;;;;;0.70;0.70;;;;;;;-3.76;78.69;99767.75;5065310;28;20021;-69
2023/12/01 04:16:49;;;;;;;1.00;1.00;;;;;;;-3.78;78.50;99768.50;5065499;28;20031;-69
2023/12/01 04:19:14;;;;;;;0.80;0.80;;;;;;;-3.76;78.56;99775.38;5065357;28;20067;-70
2023/12/01 04:21:40;;;;;;;0.60;0.60;;;;;;;-3.77;78.48;99772.78;5065259;28;20289;-70
2023/12/01 04:24:06;;;;;;;15.90;1.35;;;;;;;-3.78;78.59;99773.56;5047337;28;20135;-70
2023/12/01 04:26:32;;;;;;;1.88;1.77;;;;;;;-3.82;78.61;99782.75;5047198;28;20028;-70
2023/12/01 04:28:57;;;;;;;0.60;0.60;;;;;;;-3.83;78.47;99775.06;5065178;28;20028;-69
2023/12/01 04:31:23;;;;;;;0.60;0.60;;;;;;;-3.90;78.44;99766.34;5065114;28;20028;-69
2023/12/01 04:33:48;;;;;;;0.90;0.90;;;;;;;-3.86;78.28;99778.34;5065343;28;20025;-70
2023/12/01 04:36:14;;;;;;;0.60;0.60;;;;;;;-3.94;78.30;99774.63;5065323;28;20021;-70
2023/12/01 04:38:39;;;;;;;0.55;0.55;;;;;;;-3.93;78.33;99783.97;5065086;28;20535;-69
2023/12/01 04:41:09;;;;;;;0.70;0.70;;;;;;;-3.93;78.51;99789.91;5065047;28;20287;-69
2023/12/01 04:43:39;;;;;;;0.80;0.80;;;;;;;-3.92;78.47;99778.97;5064989;28;20032;-69
2023/12/01 04:46:05;;;;;;;0.60;0.60;;;;;;;-3.89;78.48;99768.06;5046680;28;20036;-69
2023/12/01 04:48:31;;;;;;;0.85;0.80;;;;;;;-3.90;78.39;99763.81;5064806;28;20512;-70
2023/12/01 04:50:56;;;;;;;0.80;0.80;;;;;;;-3.89;78.21;99784.16;5046988;28;20025;-69
2023/12/01 04:53:22;;;;;;;0.60;0.60;;;;;;;-3.99;78.50;99767.72;5064965;28;20104;-70
2023/12/01 04:55:47;;;;;;;1.10;0.95;;;;;;;-3.95;78.42;99783.03;5046780;28;20028;-69
2023/12/01 04:58:12;;;;;;;0.50;0.50;;;;;;;-3.93;78.46;99776.38;5064914;28;20021;-71
2023/12/01 05:00:38;;;;;;;6.07;2.50;;;;;;;-3.98;78.44;99774.50;5046600;28;20020;-70
2023/12/01 05:03:06;;;;;;;0.60;0.60;;;;;;;-3.94;78.30;99770.44;5064559;28;20049;-70
2023/12/01 05:05:36;;;;;;;1.17;1.08;;;;;;;-3.98;78.38;99779.56;5064797;28;20033;-70
2023/12/01 05:08:04;;;;;;;1.20;1.13;;;;;;;-3.99;78.36;99772.78;5064395;28;20489;-70
2023/12/01 05:10:32;;;;;;;0.50;0.50;;;;;;;-4.02;78.41;99777.72;5046633;28;20044;-69
2023/12/01 05:13:01;;;;;;;0.60;0.60;;;;;;;-4.09;78.32;99765.63;5064581;28;20029;-69
2023/12/01 05:15:31;;;;;;;0.98;0.98;;;;;;;-4.08;78.46;99761.38;5064455;28;20064;-70
2023/12/01 05:18:02;;;;;;;0.60;0.60;;;;;;;-4.06;78.38;99775.88;5064315;28;20025;-70
2023/12/01 05:20:28;;;;;;;0.90;0.90;;;;;;;-4.06;78.42;99775.88;5046666;28;20025;-70
2023/12/01 05:22:58;;;;;;;0.80;0.80;;;;;;;-4.11;78.28;99769.75;5064581;28;20055;-70
2023/12/01 05:25:27;;;;;;;1.13;1.13;;;;;;;-4.12;78.55;99766.34;5046392;28;20048;-70
2023/12/01 05:27:57;;;;;;;0.60;0.60;;;;;;;-4.07;78.31;99766.53;5064535;28;20099;-70
2023/12/01 05:30:24;;;;;;;0.70;0.70;;;;;;;-4.10;78.38;99776.53;5064303;28;20407;-70
2023/12/01 05:32:51;;;;;;;0.55;0.55;;;;;;;-4.07;78.46;99776.66;5064236;28;20031;-70
2023/12/01 05:35:17;;;;;;;2.63;1.23;;;;;;;-4.08;78.52;99787.63;5064600;28;20021;-70
2023/12/01 05:37:50;;;;;;;1.65;1.13;;;;;;;-4.09;78.41;99783.38;5046430;28;20092;-68
2023/12/01 05:40:15;;;;;;;0.80;0.80;;;;;;;-4.04;78.36;99789.47;5064276;28;20051;-69
2023/12/01 05:42:42;;;;;;;0.60;0.60;;;;;;;-4.04;78.21;99783.56;5064328;28;20029;-69
2023/12/01 05:45:11;;;;;;;3.20;2.75;;;;;;;-4.09;78.11;99795.16;5064190;28;20053;-70
2023/12/01 05:47:47;;;;;;;1.50;1.40;;;;;;;-4.17;78.29;99779.66;5064033;28;20139;-69
2023/12/01 05:50:14;;;;;;;0.60;0.60;;;;;;;-4.16;78.21;99788.97;5064311;28;20021;-69
2023/12/01 05:52:41;;;;;;;0.82;0.82;;;;;;;-4.13;78.32;99784.91;5064166;28;20033;-70
2023/12/01 05:55:14;;;;;;;0.70;0.70;;;;;;;-4.13;78.52;99774.75;5064166;28;20047;-70
2023/12/01 05:57:46;;;;;;;0.70;0.70;;;;;;;-4.11;78.35;99783.31;5047345;28;20231;-69
2023/12/01 06:00:15;;;;;;;0.60;0.60;;;;;;;-4.12;78.27;99776.47;5063948;28;20030;-68
2023/12/01 06:02:44;;;;;;;0.60;0.60;;;;;;;-4.11;78.31;99788.38;5064022;28;20036;-67
2023/12/01 06:05:11;;;;;;;0.70;0.70;;;;;;;-4.09;78.32;99790.97;5064325;28;20044;-68
2023/12/01 06:07:37;;;;;;;0.75;0.73;;;;;;;-4.12;78.17;99783.25;5044607;22;20068;-65
2023/12/01 06:10:05;;;;;;;0.60;0.60;;;;;;;-4.14;78.30;99789.91;5034450;23;20065;-67
2023/12/01 06:12:32;;;;;;;0.93;0.88;;;;;;;-4.15;78.25;99793.22;5063341;23;20086;-66
2023/12/01 06:14:58;;;;;;;0.60;0.60;;;;;;;-4.14;78.17;99792.44;5045124;28;20013;-67
2023/12/01 06:17:23;;;;;;;0.98;0.98;;;;;;;-4.13;78.19;99794.16;5064799;28;20033;-68
2023/12/01 06:19:48;;;;;;;1.17;1.17;;;;;;;-4.11;78.21;99797.63;5067664;28;20021;-69
2023/12/01 06:22:13;;;;;;;0.60;0.60;;;;;;;-4.13;78.39;99792.50;5067556;28;20108;-68
2023/12/01 06:24:39;;;;;;;0.60;0.60;;;;;;;-4.12;78.15;99788.31;5066921;28;20492;-68
2023/12/01 06:27:04;;;;;;;0.60;0.60;;;;;;;-4.07;78.16;99804.56;5067502;28;20028;-68
2023/12/01 06:29:30;;;;;;;0.60;0.60;;;;;;;-4.06;78.04;99800.34;5067197;28;20017;-69
2023/12/01 06:31:56;;;;;;;0.82;0.82;;;;;;;-4.12;78.13;99798.44;5067122;28;20029;-67
2023/12/01 06:34:21;;;;;;;0.60;0.60;;;;;;;-4.08;78.22;99791.81;5067632;28;20052;-69
2023/12/01 06:36:47;;;;;;;1.25;1.15;;;;;;;-4.10;78.35;99794.28;5073447;22;20056;-69
2023/12/01 06:39:13;;;;;;;0.93;0.93;;;;;;;-4.08;77.91;99791.81;5066855;28;20021;-67
2023/12/01 06:41:40;;;;;;;0.80;0.80;;;;;;;-4.09;78.00;99805.31;5067125;28;20029;-69
2023/12/01 06:44:05;;;;;;;0.77;0.77;;;;;;;-4.12;77.94;99793.38;5067062;28;20025;-68
2023/12/01 06:46:31;;;;;;;1.25;1.25;;;;;;;-4.08;77.89;99807.91;5066934;28;20704;-67
2023/12/01 06:48:56;;;;;;;0.80;0.80;;;;;;;-4.10;77.89;99804.44;5067390;28;20023;-68
2023/12/01 06:51:21;;;;;;;0.98;0.98;;;;;;;-4.11;77.83;99813.72;5067276;28;20464;-68
2023/12/01 06:53:47;;;;;;;0.68;0.68;;;;;;;-4.18;77.99;99793.97;5062646;22;20048;-67
2023/12/01 06:56:12;;;;;;;0.88;0.88;;;;;;;-4.18;77.91;99806.66;5073121;22;20045;-69
2023/12/01 06:58:37;;;;;;;0.93;0.93;;;;;;;-4.12;77.99;99806.91;5065708;28;20037;-69
2023/12/01 07:01:03;;;;;;;1.35;1.02;;;;;;;-4.14;77.86;99797.50;5065178;28;20036;-69
2023/12/01 07:03:29;;;;;;;1.20;1.20;;;;;;;-4.21;78.07;99814.13;5066639;23;20053;-67
2023/12/01 07:05:55;;;;;;;0.55;0.55;;;;;;;-4.18;77.91;99795.63;5055626;23;20048;-67
2023/12/01 07:08:20;;;;;;;1.33;1.15;;;;;;;-4.15;77.85;99811.84;5047791;28;20045;-66
2023/12/01 07:10:46;;;;;;;0.57;0.57;;;;;;;-4.17;77.84;99808.38;5066126;28;20031;-66
2023/12/01 07:13:11;;;;;;;0.70;0.70;;;;;;;-4.16;77.94;99810.13;5066333;28;20045;-66
2023/12/01 07:15:37;;;;;;;0.60;0.60;;;;;;;-4.14;77.63;99823.72;5066445;28;20028;-67
2023/12/01 07:18:04;;;;;;;0.70;0.70;;;;;;;-4.20;77.64;99815.00;5063640;22;20041;-68
2023/12/01 07:20:33;;;;;;;1.58;1.08;;;;;;;-4.14;77.59;99826.25;5055140;23;20140;-70
2023/12/01 07:22:59;;;;;;;0.98;0.98;;;;;;;-4.07;77.98;99824.00;5065967;28;20032;-69
2023/12/01 07:25:25;;;;;;;0.82;0.82;;;;;;;-4.03;77.67;99825.84;5066314;28;20079;-69
2023/12/01 07:28:02;;;;;;;0.60;0.60;;;;;;;-4.03;77.83;99825.84;5066475;28;20025;-70
2023/12/01 07:30:28;;;;;;;0.90;0.90;;;;;;;-4.02;77.53;99832.63;5065286;28;20021;-70
2023/12/01 07:32:54;;;;;;;0.60;0.60;;;;;;;-4.11;77.61;99812.84;5066416;28;20036;-71
2023/12/01 07:35:19;;;;;;;0.60;0.60;;;;;;;-4.08;77.63;99828.19;5066282;28;20017;-69
2023/12/01 07:37:52;;;;;;;0.50;0.50;;;;;;;-4.08;77.42;99827.31;5066206;28;20017;-68
2023/12/01 07:40:21;;;;;;;0.68;0.68;;;;;;;-4.12;77.45;99824.66;5048434;28;20089;-69
2023/12/01 07:42:48;;;;;;;0.50;0.50;;;;;;;-4.18;77.57;99831.13;5066294;28;20033;-69
2023/12/01 07:45:19;;;;;;;0.50;0.50;;;;;;;-4.15;77.27;99841.41;5065929;28;20100;-69
2023/12/01 07:47:49;;;;;;;1.00;0.95;;;;;;;-4.19;77.55;99829.41;5066134;28;20024;-70
2023/12/01 07:50:15;;;;;;;0.60;0.60;;;;;;;-4.19;77.45;99829.41;5066157;28;20025;-69
2023/12/01 07:52:47;;;;;;;1.10;0.73;;;;;;;-4.21;77.48;99836.06;5065846;28;20021;-70
2023/12/01 07:55:13;;;;;;;2.10;2.00;;;;;;;-4.18;77.60;99832.00;5048127;28;20032;-70
2023/12/01 07:57:39;;;;;;;3.80;1.33;;;;;;;-4.12;77.42;99827.19;5065649;28;20021;-69
2023/12/01 08:00:05;;;;;;;0.75;0.75;;;;;;;-4.14;77.34;99835.53;5065937;28;20024;-70
2023/12/01 08:02:31;;;;;;;0.52;0.52;;;;;;;-4.17;77.32;99838.78;5065553;28;20031;-69
2023/12/01 08:04:57;;;;;;;0.50;0.50;;;;;;;-4.18;77.36;99842.16;5065830;28;20063;-70
2023/12/01 08:07:22;;;;;;;1.77;1.67;;;;;;;-4.16;77.17;99844.75;5047678;28;20495;-70
2023/12/01 08:09:48;;;;;;;1.20;1.10;;;;;;;-4.20;77.19;99842.91;5065685;28;20021;-69
2023/12/01 08:12:15;;;;;;;0.60;0.60;;;;;;;-4.26;77.34;99838.41;5065550;28;20089;-69
2023/12/01 08:14:40;;;;;;;6.43;1.40;;;;;;;-4.19;77.44;99852.22;5065619;28;20465;-69
2023/12/01 08:17:06;;;;;;;0.70;0.70;;;;;;;-4.17;77.84;99850.63;5065136;28;20029;-69
2023/12/01 08:19:33;;;;;;;0.88;0.88;;;;;;;-4.19;77.13;99842.97;5064814;28;20071;-70
2023/12/01 08:21:59;;;;;;;0.60;0.60;;;;;;;-4.15;77.19;99852.41;5065556;28;20021;-69
2023/12/01 08:24:25;;;;;;;0.63;0.63;;;;;;;-4.13;77.37;99860.09;5065420;28;20036;-69
2023/12/01 08:26:51;;;;;;;0.60;0.60;;;;;;;-4.10;77.63;99852.59;5065245;28;20248;-69
2023/12/01 08:29:17;;;;;;;0.63;0.63;;;;;;;-4.11;77.37;99851.75;5064995;28;20024;-70
2023/12/01 08:31:45;;;;;;;1.55;1.45;;;;;;;-4.03;77.57;99857.16;5064561;28;20032;-69
2023/12/01 08:34:10;;;;;;;1.15;1.08;;;;;;;-3.99;77.48;99855.59;5065615;28;20104;-69
2023/12/01 08:36:36;;;;;;;0.75;0.75;;;;;;;-3.94;77.45;99868.47;5065295;28;20076;-70
2023/12/01 08:39:02;;;;;;;0.68;0.68;;;;;;;-4.02;77.20;99863.94;5064996;28;20039;-70
2023/12/01 08:41:28;;;;;;;0.80;0.80;;;;;;;-3.92;77.49;99874.47;5064775;28;20040;-69
2023/12/01 08:43:53;;;;;;;0.70;0.70;;;;;;;-3.91;77.27;99871.13;5064930;28;20025;-70
2023/12/01 08:46:18;;;;;;;0.60;0.60;;;;;;;-3.93;77.30;99873.59;5064975;28;20029;-70
2023/12/01 08:48:44;;;;;;;1.00;0.98;;;;;;;-3.92;77.09;99877.00;5065026;28;20032;-68
2023/12/01 08:51:09;;;;;;;0.60;0.60;;;;;;;-3.95;77.23;99881.94;5064987;28;20556;-69
2023/12/01 08:53:34;;;;;;;0.68;0.68;;;;;;;-3.94;77.56;99891.28;5046995;28;20028;-69
2023/12/01 08:56:00;;;;;;;7.53;2.78;;;;;;;-3.87;77.59;99894.16;5064509;28;20048;-70
2023/12/01 08:58:25;;;;;;;1.45;1.35;;;;;;;-3.79;77.36;99886.00;5046582;28;20032;-69
2023/12/01 09:00:51;;;;;;;0.60;0.60;;;;;;;-3.76;77.36;99891.19;5065037;28;20108;-70
2023/12/01 09:03:16;;;;;;;0.50;0.50;;;;;;;-3.75;77.28;99896.34;5064967;28;20048;-70
2023/12/01 09:05:42;;;;;;;2.25;2.15;;;;;;;-3.68;77.38;99891.50;5064868;28;20574;-70
2023/12/01 09:08:07;;;;;;;3.03;2.70;;;;;;;-3.69;77.21;99888.09;5064666;28;20025;-69
2023/12/01 09:10:33;;;;;;;0.50;0.50;;;;;;;-3.74;77.21;99887.91;5046972;28;20108;-70
2023/12/01 09:12:59;;;;;;;3.22;1.40;;;;;;;-3.72;77.10;99890.50;5064835;28;20029;-70
2023/12/01 09:15:24;;;;;;;0.60;0.60;;;;;;;-3.72;77.30;99887.13;5046937;28;20020;-70
2023/12/01 09:17:51;;;;;;;0.60;0.60;;;;;;;-3.63;77.25;99897.66;5064627;28;20025;-69
2023/12/01 09:20:17;;;;;;;0.50;0.50;;;;;;;-3.66;77.08;99882.31;5064549;28;20108;-70
2023/12/01 09:22:43;;;;;;;1.15;1.02;;;;;;;-3.61;76.87;99888.44;5064542;28;20060;-69
2023/12/01 09:25:08;;;;;;;0.60;0.60;;;;;;;-3.65;76.94;99895.06;5064625;28;20025;-69
2023/12/01 09:27:35;;;;;;;0.95;0.90;;;;;;;-3.69;76.72;99874.56;5064706;28;20025;-69
2023/12/01 09:30:00;;;;;;;0.63;0.63;;;;;;;-3.68;76.77;99876.28;5064348;28;20043;-70
2023/12/01 09:32:26;;;;;;;0.50;0.50;;;;;;;-3.78;76.72;99873.38;5063787;28;20025;-70
2023/12/01 09:34:51;;;;;;;3.13;2.22;;;;;;;-3.77;76.83;99892.00;5064212;28;20029;-69
2023/12/01 09:37:16;;;;;;;2.65;2.47;;;;;;;-3.76;76.87;99886.13;5075194;22;20061;-67
2023/12/01 09:39:42;;;;;;;1.38;1.27;;;;;;;-3.74;76.78;99889.59;5064131;28;20079;-66
2023/12/01 09:42:08;;;;;;;0.88;0.88;;;;;;;-3.74;76.88;99882.84;5064490;28;20549;-67
2023/12/01 09:44:34;;;;;;;0.75;0.75;;;;;;;-3.59;76.74;99896.13;5046733;28;20017;-67
2023/12/01 09:47:00;;;;;;;1.45;1.35;;;;;;;-3.58;76.83;99900.38;5064502;28;20021;-67
2023/12/01 09:49:30;;;;;;;4.80;1.17;;;;;;;-3.66;76.49;99898.38;5052974;22;20520;-69
2023/12/01 09:51:56;;;;;;;0.70;0.70;;;;;;;-3.69;76.30;99892.31;5046294;28;20204;-69
2023/12/01 09:54:21;;;;;;;0.60;0.60;;;;;;;-3.80;76.14;99895.28;5068688;28;20029;-69
2023/12/01 09:56:47;;;;;;;1.23;1.13;;;;;;;-3.74;76.45;99895.53;5068110;28;20033;-69
2023/12/01 09:59:16;;;;;;;0.65;0.65;;;;;;;-3.80;76.49;99900.34;5049782;28;20021;-70
2023/12/01 10:01:41;;;;;;;0.55;0.55;;;;;;;-3.84;76.44;99906.09;5049769;28;20036;-69
2023/12/01 10:04:08;;;;;;;2.08;1.88;;;;;;;-3.78;76.31;99911.44;5049784;28;20021;-70
2023/12/01 10:06:35;;;;;;;1.27;1.23;;;;;;;-3.72;76.47;99918.41;5067859;28;20036;-69
2023/12/01 10:09:01;;;;;;;1.95;1.02;;;;;;;-3.77;76.50;99913.16;5049606;28;20057;-69
2023/12/01 10:11:26;;;;;;;0.65;0.65;;;;;;;-3.78;76.36;99913.97;5067432;28;20036;-69
2023/12/01 10:13:52;;;;;;;1.38;0.75;;;;;;;-3.79;76.30;99912.25;5067886;28;20416;-69
2023/12/01 10:16:19;;;;;;;0.60;0.60;;;;;;;-3.80;76.54;99905.41;5067404;28;20037;-69
2023/12/01 10:19:04;;;;;;;0.60;0.60;;;;;;;-3.78;76.39;99911.44;5049474;28;20393;-70
2023/12/01 10:21:45;;;;;;;2.10;1.20;;;;;;;-3.77;76.40;99917.38;5067967;28;20021;-69
2023/12/01 10:24:21;;;;;;;0.80;0.80;;;;;;;-3.81;76.56;99916.38;5067727;28;20070;-69
2023/12/01 10:26:48;;;;;;;4.13;1.10;;;;;;;-3.70;76.50;99911.75;5067700;28;20029;-69
2023/12/01 10:29:30;;;;;;;1.38;1.13;;;;;;;-3.76;76.78;99902.22;5067891;28;20028;-69
2023/12/01 10:31:58;;;;;;;1.05;1.05;;;;;;;-3.74;76.30;99898.06;5049294;28;20025;-69
2023/12/01 10:34:23;;;;;;;0.60;0.60;;;;;;;-3.65;76.39;99904.31;5067993;28;20024;-70
2023/12/01 10:36:52;;;;;;;1.10;1.10;;;;;;;-3.69;76.42;99900.78;5049531;28;20406;-70
2023/12/01 10:39:20;;;;;;;0.80;0.80;;;;;;;-3.66;76.39;99883.16;5067570;28;20025;-69
2023/12/01 10:41:47;;;;;;;0.60;0.60;;;;;;;-3.66;76.46;99895.84;5067493;28;20080;-69
2023/12/01 10:44:18;;;;;;;0.60;0.60;;;;;;;-3.55;76.48;99893.75;5067784;28;20075;-69
2023/12/01 10:46:48;;;;;;;0.90;0.90;;;;;;;-3.52;76.66;99901.50;5048897;28;20028;-69
2023/12/01 10:49:17;;;;;;;0.60;0.60;;;;;;;-3.54;76.54;99898.03;5067151;28;20041;-69
2023/12/01 10:51:44;;;;;;;1.65;1.55;;;;;;;-3.47;76.67;99901.69;5066976;28;20207;-69
2023/12/01 10:54:11;;;;;;;1.25;1.17;;;;;;;-3.43;76.69;99902.66;5049244;28;20051;-69
2023/12/01 10:57:00;;;;;;;0.60;0.60;;;;;;;-3.36;76.36;99912.25;5049385;28;20032;-69
2023/12/01 10:59:26;;;;;;;2.10;1.92;;;;;;;-3.44;76.45;99896.72;5042442;28;20033;-70
2023/12/01 11:01:53;;;;;;;0.52;0.52;;;;;;;-3.37;76.58;99895.31;5066991;28;20029;-69
2023/12/01 11:04:26;;;;;;;0.63;0.63;;;;;;;-3.34;76.44;99892.91;5066766;28;20070;-70
2023/12/01 11:07:28;;;;;;;0.63;0.63;;;;;;;-3.30;76.50;99906.56;5067290;28;20530;-70
2023/12/01 11:10:12;;;;;;;2.38;2.13;;;;;;;-3.25;76.22;99905.06;5067140;28;20021;-71
2023/12/01 11:13:09;;;;;;;2.45;1.33;;;;;;;-3.24;76.13;99904.25;5049033;28;20037;-69
2023/12/01 11:15:37;;;;;;;0.68;0.68;;;;;;;-3.28;76.19;99888.06;5066855;28;20035;-70
2023/12/01 11:18:07;;;;;;;2.13;0.93;;;;;;;-3.20;76.18;99908.66;5048644;28;20021;-69
2023/12/01 11:20:43;;;;;;;6.65;1.23;;;;;;;-3.16;76.49;99910.50;5066803;28;20025;-69
2023/12/01 11:23:11;;;;;;;0.68;0.68;;;;;;;-3.13;76.34;99909.78;5066497;28;20104;-74
2023/12/01 11:25:41;;;;;;;0.55;0.55;;;;;;;-3.03;76.58;99916.94;5066636;28;20021;-70
2023/12/01 11:28:23;;;;;;;2.47;0.95;;;;;;;-2.98;76.40;99904.41;5046148;28;20417;-69
2023/12/01 11:31:08;;;;;;;0.70;0.70;;;;;;;-2.96;76.25;99905.34;5046347;28;20028;-72
2023/12/01 11:33:38;;;;;;;0.77;0.77;;;;;;;-3.07;75.95;99909.13;5073139;23;20021;-68